Time;durP1;ratioP1;P1;durP2;ratioP2;P2;SDS_P1;SDS_P2;PMS_P1;PMS_P2;Temp;Humidity;BMP_temperature;BMP_pressure;BME280_temperature;BME280_humidity;BME280_pressure;Samples;Min_cycle;Max_cycle;Signal;HPM_P1;HPM_P2
2023/05/17 00:00:48;;;;;;;5.47;2.10;;;;;;;6.98;96.51;101398.13;6015865;28;20018;-68
2023/05/17 00:03:43;;;;;;;5.40;1.97;;;;;;;6.98;96.86;101416.59;6015406;28;20521;-69
2023/05/17 00:06:38;;;;;;;5.97;1.73;;;;;;;6.76;96.86;101401.41;6052803;28;20083;-69
2023/05/17 00:09:34;;;;;;;5.93;1.73;;;;;;;6.72;97.89;101399.91;6052195;28;20088;-69
2023/05/17 00:12:30;;;;;;;8.07;2.13;;;;;;;6.76;98.03;101417.22;6048100;28;20050;-69
2023/05/17 00:15:25;;;;;;;7.93;2.30;;;;;;;6.66;98.19;101395.06;6025815;28;20038;-68
2023/05/17 00:18:20;;;;;;;8.47;1.80;;;;;;;6.60;99.20;101406.03;6027982;28;20036;-68
2023/05/17 00:21:15;;;;;;;10.63;2.40;;;;;;;6.57;99.01;101417.63;6028655;28;20030;-69
2023/05/17 00:24:11;;;;;;;5.03;2.10;;;;;;;6.50;99.41;101400.53;6027760;28;20518;-69
2023/05/17 00:27:06;;;;;;;8.30;2.57;;;;;;;6.52;99.72;101421.50;6028101;28;20037;-68
2023/05/17 00:30:02;;;;;;;7.47;2.53;;;;;;;6.47;100.00;101416.53;6031740;28;20037;-68
2023/05/17 00:32:57;;;;;;;6.90;1.98;;;;;;;6.33;100.00;101406.06;6029157;28;20027;-68
2023/05/17 00:35:52;;;;;;;6.10;2.35;;;;;;;6.28;100.00;101405.53;6043412;28;20088;-69
2023/05/17 00:38:48;;;;;;;5.97;2.27;;;;;;;6.21;100.00;101404.25;6027836;28;20041;-68
2023/05/17 00:41:43;;;;;;;7.23;2.50;;;;;;;6.40;100.00;101414.41;6028336;28;20018;-69
2023/05/17 00:44:38;;;;;;;8.33;2.20;;;;;;;6.38;100.00;101421.59;6023833;28;20126;-69
2023/05/17 00:47:34;;;;;;;9.27;2.78;;;;;;;6.29;100.00;101424.81;6021753;28;20118;-69
2023/05/17 00:50:29;;;;;;;7.40;2.50;;;;;;;6.30;100.00;101416.81;6022077;28;20069;-69
2023/05/17 00:53:25;;;;;;;9.73;2.50;;;;;;;6.26;100.00;101425.88;6020532;28;20355;-69
2023/05/17 00:56:20;;;;;;;8.80;2.72;;;;;;;6.17;100.00;101417.72;6028012;28;20053;-69
2023/05/17 00:59:16;;;;;;;7.27;2.00;;;;;;;6.07;100.00;101414.00;6027502;28;20052;-69
2023/05/17 01:02:11;;;;;;;7.82;2.10;;;;;;;6.07;100.00;101427.16;6024667;28;20477;-69
2023/05/17 01:05:06;;;;;;;6.97;2.37;;;;;;;6.01;100.00;101417.88;6031203;28;20030;-69
2023/05/17 01:08:02;;;;;;;8.60;2.20;;;;;;;5.97;100.00;101443.56;6051011;28;20029;-69
2023/05/17 01:11:18;;;;;;;5.03;1.90;;;;;;;5.74;100.00;101416.97;6051294;28;20292;-69
2023/05/17 01:14:32;;;;;;;5.97;2.30;;;;;;;5.82;100.00;101433.97;6048800;28;20493;-69
2023/05/17 01:17:35;;;;;;;14.75;2.60;;;;;;;5.81;100.00;101427.03;6048804;28;20034;-69
2023/05/17 01:20:36;;;;;;;8.07;2.22;;;;;;;5.82;100.00;101428.72;6023701;28;20099;-69
2023/05/17 01:23:45;;;;;;;8.57;2.50;;;;;;;5.85;100.00;101433.81;6016640;28;20027;-69
2023/05/17 01:26:43;;;;;;;9.82;2.10;;;;;;;5.78;100.00;101413.22;6022679;28;20062;-69
2023/05/17 01:29:39;;;;;;;9.07;2.67;;;;;;;5.73;100.00;101405.63;6026586;28;20038;-69
2023/05/17 01:32:34;;;;;;;7.00;2.83;;;;;;;5.78;100.00;101421.13;6041967;28;20605;-69
2023/05/17 01:35:29;;;;;;;8.07;2.13;;;;;;;5.75;100.00;101416.06;6017607;28;20042;-69
2023/05/17 01:38:25;;;;;;;6.22;2.42;;;;;;;5.92;100.00;101440.34;6016826;28;20030;-69
2023/05/17 01:41:28;;;;;;;10.50;2.50;;;;;;;5.83;100.00;101440.09;6026707;28;20022;-69
2023/05/17 01:44:30;;;;;;;8.05;2.22;;;;;;;5.75;100.00;101437.94;6032014;28;20041;-69
2023/05/17 01:47:47;;;;;;;8.32;2.40;;;;;;;5.71;100.00;101451.38;6044019;28;20501;-68
2023/05/17 01:50:46;;;;;;;6.78;2.20;;;;;;;5.62;100.00;101437.03;6033993;28;20022;-68
2023/05/17 01:53:45;;;;;;;7.78;2.50;;;;;;;5.66;100.00;101454.31;6020395;28;20058;-68
2023/05/17 01:56:42;;;;;;;5.97;2.63;;;;;;;5.51;100.00;101439.50;6025279;28;20030;-68
2023/05/17 01:59:39;;;;;;;8.02;3.03;;;;;;;5.56;100.00;101450.56;6024024;28;20023;-68
2023/05/17 02:02:35;;;;;;;11.60;3.15;;;;;;;5.57;100.00;101441.72;6025084;28;20034;-69
2023/05/17 02:05:30;;;;;;;10.02;2.70;;;;;;;5.67;100.00;101463.06;6024108;28;20045;-69
2023/05/17 02:08:25;;;;;;;9.70;2.17;;;;;;;5.70;100.00;101444.44;6019874;28;20060;-69
2023/05/17 02:11:21;;;;;;;8.20;2.47;;;;;;;5.77;100.00;101441.31;6026309;28;20484;-69
2023/05/17 02:14:16;;;;;;;17.37;3.53;;;;;;;5.95;100.00;101444.63;6025592;28;20038;-69
2023/05/17 02:17:12;;;;;;;9.53;2.90;;;;;;;6.10;100.00;101442.75;6026491;28;20030;-69
2023/05/17 02:20:08;;;;;;;13.52;2.75;;;;;;;6.09;100.00;101446.34;6025533;28;20022;-69
2023/05/17 02:23:03;;;;;;;12.57;2.70;;;;;;;6.20;100.00;101455.22;6025996;28;20026;-69
2023/05/17 02:25:58;;;;;;;10.63;3.30;;;;;;;6.14;100.00;101444.25;6024271;28;20036;-69
2023/05/17 02:28:53;;;;;;;10.17;3.13;;;;;;;6.15;100.00;101449.41;6026047;28;20022;-68
2023/05/17 02:31:49;;;;;;;12.00;3.27;;;;;;;6.20;100.00;101459.63;6026313;28;20033;-69
2023/05/17 02:34:44;;;;;;;9.90;3.27;;;;;;;6.12;100.00;101446.97;6025488;28;20030;-69
2023/05/17 02:37:40;;;;;;;11.77;2.87;;;;;;;6.16;100.00;101458.16;6025831;28;20268;-69
2023/05/17 02:40:35;;;;;;;14.82;2.92;;;;;;;6.29;100.00;101467.81;6025549;28;20269;-69
2023/05/17 02:43:30;;;;;;;12.67;3.00;;;;;;;6.44;100.00;101473.88;6017257;28;20037;-69
2023/05/17 02:46:26;;;;;;;13.63;2.90;;;;;;;6.31;100.00;101458.00;6026046;28;20030;-69
2023/05/17 02:49:21;;;;;;;9.70;2.43;;;;;;;6.41;100.00;101484.59;6025929;28;20045;-69
2023/05/17 02:52:16;;;;;;;8.67;2.77;;;;;;;6.37;100.00;101472.56;6025625;28;20063;-69
2023/05/17 02:55:11;;;;;;;14.73;3.47;;;;;;;6.44;100.00;101484.41;6020749;28;20375;-69
2023/05/17 02:58:07;;;;;;;8.10;3.20;;;;;;;6.39;100.00;101487.31;6021106;28;20041;-69
2023/05/17 03:01:02;;;;;;;8.93;2.60;;;;;;;6.36;100.00;101494.59;6022986;28;20073;-69
2023/05/17 03:03:57;;;;;;;10.63;2.87;;;;;;;6.31;100.00;101484.34;6024415;28;20134;-69
2023/05/17 03:06:53;;;;;;;9.90;3.13;;;;;;;6.30;100.00;101487.09;6030881;28;20042;-70
2023/05/17 03:09:48;;;;;;;7.90;2.57;;;;;;;6.22;100.00;101481.47;6048935;28;20029;-69
2023/05/17 03:12:43;;;;;;;12.43;3.30;;;;;;;6.19;100.00;101481.66;6048795;28;20034;-69
2023/05/17 03:15:39;;;;;;;12.50;3.15;;;;;;;6.15;100.00;101478.38;6031762;28;20037;-68
2023/05/17 03:18:34;;;;;;;10.03;2.83;;;;;;;6.13;100.00;101482.91;6025663;28;20030;-69
2023/05/17 03:21:30;;;;;;;13.05;3.00;;;;;;;6.16;100.00;101492.41;6025273;28;20023;-69
2023/05/17 03:24:25;;;;;;;14.57;3.75;;;;;;;6.12;100.00;101488.25;6024776;28;20039;-68
2023/05/17 03:27:21;;;;;;;9.83;3.10;;;;;;;6.07;100.00;101492.97;6025271;28;20030;-69
2023/05/17 03:30:16;;;;;;;17.53;3.50;;;;;;;6.14;100.00;101512.72;6021674;28;20022;-69
2023/05/17 03:33:11;;;;;;;13.70;3.00;;;;;;;6.02;100.00;101497.69;6022434;28;20053;-68
2023/05/17 03:36:07;;;;;;;11.77;3.93;;;;;;;5.96;100.00;101494.50;6026263;28;20022;-68
2023/05/17 03:39:02;;;;;;;9.85;3.40;;;;;;;6.02;100.00;101518.75;6029623;28;20492;-69
2023/05/17 03:41:57;;;;;;;9.80;3.27;;;;;;;5.96;100.00;101515.56;6029529;28;20374;-69
2023/05/17 03:44:52;;;;;;;8.97;3.03;;;;;;;6.03;100.00;101520.44;6032015;28;20022;-69
2023/05/17 03:47:48;;;;;;;14.30;2.83;;;;;;;6.06;100.00;101530.78;6033054;28;20037;-68
2023/05/17 03:50:43;;;;;;;13.37;3.43;;;;;;;6.07;100.00;101522.78;6029103;28;20032;-68
2023/05/17 03:53:42;;;;;;;12.77;3.25;;;;;;;6.07;100.00;101521.94;6028853;28;20407;-68
2023/05/17 03:56:37;;;;;;;11.77;3.58;;;;;;;6.15;100.00;101530.19;6028967;28;20154;-69
2023/05/17 03:59:32;;;;;;;13.43;3.10;;;;;;;6.25;100.00;101536.59;6029559;28;20477;-68
2023/05/17 04:02:27;;;;;;;10.87;3.83;;;;;;;6.17;100.00;101528.31;6021042;28;20041;-69
2023/05/17 04:05:23;;;;;;;13.63;3.40;;;;;;;6.29;100.00;101524.88;6017818;28;20667;-67
2023/05/17 04:08:18;;;;;;;10.57;3.33;;;;;;;6.41;100.00;101547.81;6026420;28;20030;-69
2023/05/17 04:11:13;;;;;;;13.30;3.57;;;;;;;6.51;100.00;101556.81;6008451;28;20041;-68
2023/05/17 04:14:09;;;;;;;10.40;3.27;;;;;;;6.59;100.00;101547.47;6028788;28;20604;-68
2023/05/17 04:17:04;;;;;;;14.73;3.70;;;;;;;6.63;100.00;101548.13;6028932;28;20079;-69
2023/05/17 04:19:59;;;;;;;13.30;3.40;;;;;;;6.74;100.00;101544.78;6028446;28;20031;-69
2023/05/17 04:22:54;;;;;;;10.37;3.50;;;;;;;6.93;100.00;101553.16;6032081;28;20033;-69
2023/05/17 04:25:50;;;;;;;10.77;3.43;;;;;;;7.12;100.00;101575.53;6070476;28;20119;-69
2023/05/17 04:28:45;;;;;;;13.40;3.40;;;;;;;7.15;100.00;101559.50;6052572;28;20022;-69
2023/05/17 04:31:41;;;;;;;14.07;4.97;;;;;;;7.28;100.00;101579.81;6024625;28;20040;-68
2023/05/17 04:34:36;;;;;;;14.70;3.13;;;;;;;7.35;100.00;101578.41;6027834;28;20034;-68
2023/05/17 04:37:31;;;;;;;10.33;3.07;;;;;;;7.34;100.00;101574.13;6026399;28;20042;-69
2023/05/17 04:40:27;;;;;;;12.47;3.30;;;;;;;7.53;100.00;101598.28;6029578;28;20324;-69
2023/05/17 04:43:22;;;;;;;12.80;2.63;;;;;;;7.56;100.00;101583.06;6028055;28;20045;-69
2023/05/17 04:46:17;;;;;;;14.93;3.17;;;;;;;7.80;100.00;101591.09;6028344;28;20451;-68
2023/05/17 04:49:13;;;;;;;8.53;2.40;;;;;;;8.10;100.00;101588.13;6028241;28;20262;-68
2023/05/17 04:52:08;;;;;;;18.07;3.30;;;;;;;8.40;99.55;101600.97;6029036;28;20084;-69
2023/05/17 04:55:04;;;;;;;14.20;2.70;;;;;;;8.42;97.74;101584.06;6027645;28;20053;-69
2023/05/17 04:57:59;;;;;;;8.40;2.28;;;;;;;8.51;96.74;101593.94;6029423;28;20026;-69
2023/05/17 05:00:55;;;;;;;16.27;2.80;;;;;;;8.31;95.90;101607.75;6028844;28;20081;-68
2023/05/17 05:03:50;;;;;;;14.85;2.25;;;;;;;8.29;95.93;101615.78;6030289;28;20037;-69
2023/05/17 05:06:46;;;;;;;10.80;3.17;;;;;;;8.41;95.95;101613.22;6027040;28;20022;-69
2023/05/17 05:09:41;;;;;;;14.07;2.63;;;;;;;8.45;95.04;101617.34;6027447;28;20065;-69
2023/05/17 05:12:37;;;;;;;10.20;2.20;;;;;;;8.38;93.91;101612.50;6027311;28;20054;-69
2023/05/17 05:15:32;;;;;;;12.65;2.28;;;;;;;8.66;93.46;101629.84;6028370;28;20027;-69
2023/05/17 05:18:27;;;;;;;11.75;2.40;;;;;;;8.60;92.31;101619.72;6026434;28;20026;-69
2023/05/17 05:21:23;;;;;;;14.40;2.57;;;;;;;8.65;91.39;101617.59;6021529;28;20026;-69
2023/05/17 05:24:18;;;;;;;12.57;3.15;;;;;;;8.71;91.18;101618.94;6024439;28;20030;-68
2023/05/17 05:27:13;;;;;;;9.77;1.80;;;;;;;8.66;90.72;101623.72;6028164;28;20169;-68
2023/05/17 05:30:09;;;;;;;10.60;2.10;;;;;;;8.82;88.66;101634.88;6026882;28;20051;-68
2023/05/17 05:33:04;;;;;;;12.43;2.65;;;;;;;8.81;88.66;101643.75;6028570;28;20133;-68
2023/05/17 05:35:59;;;;;;;8.70;2.53;;;;;;;8.93;88.09;101648.16;6027256;28;20111;-68
2023/05/17 05:38:55;;;;;;;10.13;2.23;;;;;;;9.00;86.09;101654.66;6029039;28;20026;-68
2023/05/17 05:41:53;;;;;;;21.37;3.33;;;;;;;9.24;86.87;101658.13;6026448;28;20057;-68
2023/05/17 05:44:49;;;;;;;14.35;2.30;;;;;;;9.57;85.41;101652.13;6019840;28;20022;-68
2023/05/17 05:47:44;;;;;;;17.25;2.25;;;;;;;9.45;82.49;101653.06;6023657;28;20034;-68
2023/05/17 05:50:41;;;;;;;11.13;1.87;;;;;;;9.54;82.22;101665.59;6036729;28;20040;-68
2023/05/17 05:53:37;;;;;;;11.85;2.28;;;;;;;9.70;78.99;101654.69;6043094;28;20025;-68
2023/05/17 05:56:32;;;;;;;9.70;1.92;;;;;;;9.68;79.98;101651.28;6029473;28;20034;-68
2023/05/17 05:59:28;;;;;;;12.43;2.23;;;;;;;9.58;77.54;101675.00;6043618;28;20033;-68
2023/05/17 06:02:23;;;;;;;9.27;1.77;;;;;;;9.58;77.63;101654.66;6020005;28;20101;-68
2023/05/17 06:05:18;;;;;;;9.38;1.90;;;;;;;9.61;75.24;101648.28;6025965;28;20117;-68
2023/05/17 06:08:14;;;;;;;11.23;1.90;;;;;;;9.72;74.27;101663.34;6026220;28;20033;-68
2023/05/17 06:11:09;;;;;;;8.20;1.63;;;;;;;9.64;70.68;101682.47;6026420;28;20377;-68
2023/05/17 06:14:04;;;;;;;10.83;1.97;;;;;;;10.14;69.86;101686.56;6025577;28;20280;-68
2023/05/17 06:17:00;;;;;;;7.90;1.52;;;;;;;10.31;68.10;101683.44;6031404;28;20026;-68
2023/05/17 06:19:55;;;;;;;7.80;1.60;;;;;;;10.14;68.96;101691.88;6025561;28;20545;-68
2023/05/17 06:22:50;;;;;;;7.17;1.30;;;;;;;10.23;67.41;101693.81;6039070;28;20041;-68
2023/05/17 06:25:46;;;;;;;10.50;1.77;;;;;;;10.23;67.24;101707.06;6036755;28;20104;-68
2023/05/17 06:28:41;;;;;;;8.60;2.03;;;;;;;10.18;66.42;101709.22;6029457;28;20081;-68
2023/05/17 06:31:36;;;;;;;15.30;1.77;;;;;;;10.19;68.79;101702.97;6034260;28;20037;-68
2023/05/17 06:34:31;;;;;;;5.20;1.10;;;;;;;10.50;66.70;101712.00;6040036;28;20037;-68
2023/05/17 06:37:27;;;;;;;9.20;1.50;;;;;;;10.31;67.40;101694.06;6029980;28;20121;-68
2023/05/17 06:40:22;;;;;;;6.90;1.60;;;;;;;10.24;64.13;101716.72;6026430;28;20378;-68
2023/05/17 06:43:17;;;;;;;7.73;1.57;;;;;;;10.39;63.03;101712.84;6034745;28;20125;-68
2023/05/17 06:46:13;;;;;;;16.10;1.70;;;;;;;10.57;64.47;101718.53;6027458;28;20748;-68
2023/05/17 06:49:08;;;;;;;12.03;1.83;;;;;;;10.10;61.58;101735.44;6027847;28;20034;-67
2023/05/17 06:52:04;;;;;;;7.40;1.33;;;;;;;9.95;62.76;101745.41;6031413;28;20045;-68
2023/05/17 06:54:59;;;;;;;8.07;1.65;;;;;;;10.19;63.90;101726.84;6045009;28;20273;-67
2023/05/17 06:57:55;;;;;;;3.73;1.27;;;;;;;10.68;64.00;101742.41;6041957;28;20034;-67
2023/05/17 07:00:50;;;;;;;8.43;1.27;;;;;;;11.12;60.59;101738.81;6033657;28;20068;-68
2023/05/17 07:03:45;;;;;;;7.47;1.50;;;;;;;10.72;59.68;101744.69;6030291;28;20473;-68
2023/05/17 07:06:41;;;;;;;4.95;1.10;;;;;;;11.09;59.95;101745.22;6038654;28;20018;-68
2023/05/17 07:09:36;;;;;;;7.70;1.23;;;;;;;11.36;59.20;101755.41;6027891;28;20038;-68
2023/05/17 07:12:32;;;;;;;14.80;2.30;;;;;;;11.28;58.05;101765.81;6030108;28;20069;-68
2023/05/17 07:15:27;;;;;;;5.88;1.45;;;;;;;10.88;57.71;101777.94;6027826;28;20135;-68
2023/05/17 07:18:22;;;;;;;9.50;1.30;;;;;;;11.47;56.48;101760.69;6036902;28;20030;-68
2023/05/17 07:21:18;;;;;;;11.07;1.37;;;;;;;12.08;53.63;101761.78;6040234;28;20088;-68
2023/05/17 07:24:13;;;;;;;9.03;1.70;;;;;;;11.47;54.84;101773.97;6039558;28;20030;-67
2023/05/17 07:27:08;;;;;;;9.30;1.30;;;;;;;11.56;55.51;101759.94;6038225;28;20512;-68
2023/05/17 07:30:06;;;;;;;5.97;1.20;;;;;;;11.45;57.19;101783.03;6044114;28;20026;-68
2023/05/17 07:33:01;;;;;;;5.72;1.42;;;;;;;11.23;56.96;101773.31;6041033;28;20604;-68
2023/05/17 07:35:56;;;;;;;6.90;1.20;;;;;;;11.01;57.71;101773.34;6039549;28;20048;-67
2023/05/17 07:38:52;;;;;;;6.40;1.07;;;;;;;10.68;57.28;101777.72;6036210;28;20042;-67
2023/05/17 07:41:47;;;;;;;6.30;1.30;;;;;;;10.50;58.60;101773.84;6023345;28;20096;-68
2023/05/17 07:44:42;;;;;;;7.60;1.27;;;;;;;10.59;59.01;101793.50;6041587;28;20378;-68
2023/05/17 07:47:37;;;;;;;9.90;1.60;;;;;;;10.60;57.47;101800.47;6028525;28;20038;-68
2023/05/17 07:50:33;;;;;;;7.47;1.10;;;;;;;10.88;55.43;101791.22;6040309;28;20037;-68
2023/05/17 07:53:28;;;;;;;6.33;1.40;;;;;;;10.57;55.18;101808.72;6038085;28;20026;-68
2023/05/17 07:56:23;;;;;;;8.00;1.40;;;;;;;11.26;55.72;101826.16;6032147;28;20041;-67
2023/05/17 07:59:19;;;;;;;8.87;1.17;;;;;;;12.35;51.68;101819.75;6034966;28;20026;-67
2023/05/17 08:02:14;;;;;;;10.23;1.30;;;;;;;12.15;50.86;101821.41;6041508;28;20026;-68
2023/05/17 08:05:09;;;;;;;9.23;1.60;;;;;;;12.23;50.22;101831.44;6033009;28;20072;-68
2023/05/17 08:08:05;;;;;;;9.63;1.60;;;;;;;12.46;49.57;101828.50;6039074;28;20273;-68
2023/05/17 08:11:00;;;;;;;6.53;1.87;;;;;;;11.86;49.96;101810.56;6025238;28;20629;-68
2023/05/17 08:13:55;;;;;;;8.03;1.10;;;;;;;11.97;49.58;101817.66;6032402;28;20274;-68
2023/05/17 08:16:51;;;;;;;8.38;1.50;;;;;;;11.62;55.52;101836.47;6041118;28;20026;-68
2023/05/17 08:19:46;;;;;;;4.87;1.50;;;;;;;11.24;58.36;101836.06;6034662;28;20037;-68
2023/05/17 08:22:41;;;;;;;12.97;1.53;;;;;;;11.11;58.60;101820.28;6028640;28;20026;-68
2023/05/17 08:25:37;;;;;;;9.90;1.50;;;;;;;10.95;59.10;101821.63;6024039;28;20030;-68
2023/05/17 08:28:32;;;;;;;7.97;1.40;;;;;;;11.25;58.81;101833.28;6040376;28;20038;-68
2023/05/17 08:31:28;;;;;;;5.70;1.30;;;;;;;11.39;58.43;101818.91;6037968;28;20281;-68
2023/05/17 08:34:23;;;;;;;5.88;1.27;;;;;;;11.20;57.90;101831.97;6039312;28;20053;-68
2023/05/17 08:37:18;;;;;;;10.37;1.67;;;;;;;11.18;58.50;101812.66;6031958;28;20038;-68
2023/05/17 08:40:16;;;;;;;6.40;1.00;;;;;;;11.15;58.73;101844.75;6019758;28;20373;-68
2023/05/17 08:43:12;;;;;;;8.50;1.55;;;;;;;11.10;59.61;101836.31;6038251;28;20108;-68
2023/05/17 08:46:08;;;;;;;6.45;1.40;;;;;;;11.14;57.64;101827.97;6030795;28;20038;-67
2023/05/17 08:49:04;;;;;;;8.60;1.50;;;;;;;11.16;57.20;101828.72;6032181;28;20475;-70
2023/05/17 08:52:02;;;;;;;12.20;2.10;;;;;;;11.13;56.36;101842.25;6031660;28;20161;-67
2023/05/17 08:54:59;;;;;;;7.50;1.70;;;;;;;10.61;59.76;101826.91;6028015;28;20033;-70
2023/05/17 08:57:55;;;;;;;11.23;1.77;;;;;;;10.64;59.80;101847.91;6028852;28;20050;-68
2023/05/17 09:00:50;;;;;;;12.35;1.50;;;;;;;10.66;59.10;101853.91;6016803;28;20092;-67
2023/05/17 09:03:49;;;;;;;7.35;1.55;;;;;;;10.54;59.44;101838.97;6026922;28;20488;-67
2023/05/17 09:06:45;;;;;;;5.60;1.52;;;;;;;10.75;58.29;101839.94;6028080;28;20093;-68
2023/05/17 09:09:40;;;;;;;8.13;1.40;;;;;;;11.07;57.27;101844.53;6030006;28;21229;-67
2023/05/17 09:12:36;;;;;;;7.45;1.40;;;;;;;11.49;54.75;101846.41;6028896;28;20084;-68
2023/05/17 09:15:33;;;;;;;6.80;1.60;;;;;;;11.65;54.71;101828.25;6027205;28;20038;-68
2023/05/17 09:18:31;;;;;;;11.45;1.83;;;;;;;12.55;52.86;101856.16;6023127;28;20109;-68
2023/05/17 09:21:27;;;;;;;6.90;1.23;;;;;;;11.96;52.92;101853.19;6029349;28;20030;-68
2023/05/17 09:24:28;;;;;;;4.95;1.33;;;;;;;11.49;55.82;101841.09;6039716;28;20042;-67
2023/05/17 09:27:23;;;;;;;;;;;;;;;11.63;57.20;101862.06;6026748;28;20029;-67
2023/05/17 09:30:18;;;;;;;5.50;1.20;;;;;;;11.62;57.12;101860.41;6020938;28;20298;-68
2023/05/17 09:33:13;;;;;;;9.73;1.70;;;;;;;11.36;56.65;101858.97;6023757;28;20462;-68
2023/05/17 09:36:22;;;;;;;11.93;1.97;;;;;;;11.00;57.85;101846.00;6026665;28;20026;-68
2023/05/17 09:39:17;;;;;;;6.53;1.45;;;;;;;11.48;56.23;101850.03;6021418;28;20030;-68
2023/05/17 09:42:15;;;;;;;4.72;1.20;;;;;;;12.36;52.88;101843.56;6025220;28;20036;-67
2023/05/17 09:45:10;;;;;;;10.27;1.40;;;;;;;13.02;49.72;101828.91;6028292;28;20034;-67
2023/05/17 09:48:16;;;;;;;9.00;1.70;;;;;;;13.64;46.89;101827.88;6025345;28;20038;-67
2023/05/17 09:51:12;;;;;;;9.82;1.92;;;;;;;13.57;47.20;101824.06;6025573;28;20109;-68
2023/05/17 09:54:08;;;;;;;9.38;1.60;;;;;;;13.23;46.72;101828.91;6024807;28;20030;-67
2023/05/17 09:57:08;;;;;;;8.20;1.45;;;;;;;12.86;48.58;101828.56;6024930;28;20488;-67
2023/05/17 10:00:08;;;;;;;8.07;1.63;;;;;;;12.24;50.39;101846.41;6024811;28;20046;-68
2023/05/17 10:03:04;;;;;;;8.75;1.45;;;;;;;11.86;51.01;101852.25;6025290;28;20029;-67
2023/05/17 10:06:04;;;;;;;7.45;1.40;;;;;;;11.46;52.19;101848.47;6025106;28;20377;-67
2023/05/17 10:08:59;;;;;;;6.45;1.17;;;;;;;11.70;52.22;101849.16;6025629;28;20029;-67
2023/05/17 10:11:56;;;;;;;7.68;1.40;;;;;;;12.12;51.08;101842.13;6023241;28;20081;-68
2023/05/17 10:14:55;;;;;;;9.80;1.95;;;;;;;12.34;50.88;101852.63;6023779;28;20049;-67
2023/05/17 10:17:51;;;;;;;9.25;1.45;;;;;;;12.34;49.18;101858.78;6035471;28;20030;-67
2023/05/17 10:20:47;;;;;;;11.52;2.22;;;;;;;12.08;49.77;101856.63;6028794;28;20041;-67
2023/05/17 10:23:44;;;;;;;7.78;1.48;;;;;;;12.58;47.24;101839.94;6028723;28;20117;-68
2023/05/17 10:26:40;;;;;;;5.47;1.50;;;;;;;13.09;46.22;101851.41;6026743;28;20489;-67
2023/05/17 10:29:38;;;;;;;6.20;1.30;;;;;;;13.35;45.63;101850.94;6024224;28;20034;-67
2023/05/17 10:32:33;;;;;;;4.38;1.30;;;;;;;13.76;43.36;101840.06;6024998;28;20034;-70
2023/05/17 10:35:31;;;;;;;6.82;1.40;;;;;;;14.09;42.75;101834.34;6026701;28;20062;-70
2023/05/17 10:38:26;;;;;;;6.75;1.45;;;;;;;13.97;44.60;101840.78;6025783;28;20033;-70
2023/05/17 10:41:27;;;;;;;7.18;1.90;;;;;;;13.59;45.78;101838.06;6025705;28;20030;-67
2023/05/17 10:44:23;;;;;;;8.15;1.48;;;;;;;12.96;46.29;101839.28;6019681;28;20034;-69
2023/05/17 10:47:18;;;;;;;6.20;0.93;;;;;;;12.89;48.69;101848.75;6022745;28;20034;-69
2023/05/17 10:50:23;;;;;;;5.07;1.17;;;;;;;13.18;47.31;101843.59;6028462;28;20097;-69
2023/05/17 10:53:18;;;;;;;7.53;1.73;;;;;;;13.60;45.89;101839.78;6020436;28;20026;-67
2023/05/17 10:56:13;;;;;;;6.67;1.50;;;;;;;14.42;46.79;101832.22;6030357;28;20034;-67
2023/05/17 10:59:23;;;;;;;6.43;1.30;;;;;;;13.88;44.76;101833.63;6030006;28;20018;-68
2023/05/17 11:02:22;;;;;;;5.90;1.27;;;;;;;13.67;44.87;101822.22;6027308;28;20026;-67
2023/05/17 11:05:25;;;;;;;6.70;1.50;;;;;;;13.98;44.92;101834.47;6027035;28;20577;-67
2023/05/17 11:08:21;;;;;;;7.22;1.48;;;;;;;14.14;43.88;101828.56;6027378;28;20046;-68
2023/05/17 11:11:17;;;;;;;8.60;1.60;;;;;;;14.25;43.90;101829.25;6027397;28;20381;-67
2023/05/17 11:14:13;;;;;;;5.00;1.17;;;;;;;14.41;42.08;101833.19;6026888;28;20034;-67
2023/05/17 11:17:12;;;;;;;7.43;1.33;;;;;;;14.66;43.92;101836.09;6026588;28;20026;-68
2023/05/17 11:20:10;;;;;;;6.80;1.13;;;;;;;14.25;42.27;101826.59;6029852;28;20033;-67
2023/05/17 11:23:06;;;;;;;11.30;1.88;;;;;;;14.02;43.73;101835.84;6018554;28;20030;-67
2023/05/17 11:26:32;;;;;;;5.85;1.27;;;;;;;14.07;44.85;101828.31;6024222;28;20053;-68
2023/05/17 11:29:29;;;;;;;6.15;1.80;;;;;;;14.48;42.54;101818.31;6017790;28;20393;-67
2023/05/17 11:32:27;;;;;;;5.93;1.45;;;;;;;14.68;43.54;101822.59;6021765;28;20031;-68
2023/05/17 11:35:25;;;;;;;6.25;1.30;;;;;;;14.89;43.10;101826.72;6020347;28;20097;-67
2023/05/17 11:38:22;;;;;;;7.57;1.60;;;;;;;15.01;43.34;101830.06;6024714;28;20037;-67
2023/05/17 11:41:21;;;;;;;6.55;1.55;;;;;;;14.11;45.15;101847.50;6027288;28;20026;-67
2023/05/17 11:44:26;;;;;;;7.82;1.45;;;;;;;13.85;45.42;101854.41;6024352;28;20034;-68
2023/05/17 11:47:21;;;;;;;9.30;1.75;;;;;;;14.11;44.68;101851.03;6026420;28;20485;-68
2023/05/17 11:50:17;;;;;;;5.22;1.20;;;;;;;13.88;44.71;101851.44;6027375;28;20034;-67
2023/05/17 11:53:13;;;;;;;9.47;2.60;;;;;;;13.29;45.46;101867.47;6033618;28;20049;-67
2023/05/17 11:56:08;;;;;;;10.60;1.80;;;;;;;13.19;46.51;101872.75;6026332;28;20261;-67
2023/05/17 11:59:04;;;;;;;5.93;1.38;;;;;;;13.69;45.34;101862.94;6030392;28;20030;-68
2023/05/17 12:01:59;;;;;;;8.73;1.65;;;;;;;14.48;43.16;101853.00;6032061;28;20037;-68
2023/05/17 12:04:55;;;;;;;7.97;1.27;;;;;;;14.48;43.12;101845.84;6027446;28;20092;-67
2023/05/17 12:07:51;;;;;;;6.17;2.03;;;;;;;14.65;42.53;101845.06;6026113;28;20109;-67
2023/05/17 12:10:51;;;;;;;6.93;1.38;;;;;;;14.49;43.38;101854.66;6025697;28;20273;-68
2023/05/17 12:13:47;;;;;;;4.30;1.30;;;;;;;14.56;44.71;101855.78;6021019;28;20022;-67
2023/05/17 12:16:44;;;;;;;4.65;1.25;;;;;;;13.79;46.21;101873.59;6026547;28;20030;-68
2023/05/17 12:19:40;;;;;;;3.72;0.95;;;;;;;14.03;46.01;101872.22;6028057;28;20029;-68
2023/05/17 12:22:52;;;;;;;6.28;1.38;;;;;;;14.63;45.86;101876.44;6025001;28;20037;-68
2023/05/17 12:25:47;;;;;;;6.68;1.45;;;;;;;14.32;43.89;101868.75;6038561;28;20187;-68
2023/05/17 12:28:45;;;;;;;5.70;1.00;;;;;;;14.61;41.92;101859.72;6036767;28;20475;-68
2023/05/17 12:31:47;;;;;;;4.72;0.93;;;;;;;14.40;41.57;101871.56;6035017;28;20093;-68
2023/05/17 12:34:42;;;;;;;9.93;1.60;;;;;;;14.78;41.37;101863.47;6028437;28;20034;-67
2023/05/17 12:37:38;;;;;;;3.23;0.90;;;;;;;15.21;40.13;101878.91;6032617;28;20083;-68
2023/05/17 12:40:33;;;;;;;8.27;1.20;;;;;;;15.22;40.46;101883.28;6020491;28;20030;-68
2023/05/17 12:43:30;;;;;;;5.23;1.23;;;;;;;15.36;39.63;101880.09;6032317;28;20034;-68
2023/05/17 12:46:27;;;;;;;6.20;1.30;;;;;;;15.48;41.16;101862.91;6028422;28;20269;-68
2023/05/17 12:49:22;;;;;;;8.55;1.17;;;;;;;15.11;40.61;101873.59;6032793;28;20038;-67
2023/05/17 12:52:17;;;;;;;5.40;1.27;;;;;;;15.29;41.69;101871.00;6035255;28;20049;-67
2023/05/17 12:55:13;;;;;;;5.73;1.30;;;;;;;14.86;41.61;101874.28;6027994;28;20022;-67
2023/05/17 12:58:08;;;;;;;4.70;1.10;;;;;;;14.76;43.60;101886.78;6024994;28;20285;-67
2023/05/17 13:01:09;;;;;;;4.17;1.17;;;;;;;15.58;42.21;101873.53;6036406;28;20324;-67
2023/05/17 13:04:04;;;;;;;3.65;1.17;;;;;;;15.41;40.91;101867.13;6035661;28;20466;-67
2023/05/17 13:07:02;;;;;;;4.10;1.02;;;;;;;14.82;42.70;101873.72;6024100;28;20045;-67
2023/05/17 13:09:57;;;;;;;4.90;1.10;;;;;;;14.27;43.72;101875.31;6025971;28;20019;-67
2023/05/17 13:12:59;;;;;;;5.00;1.23;;;;;;;14.72;43.31;101882.75;6022400;28;20092;-67
2023/05/17 13:15:57;;;;;;;2.88;1.00;;;;;;;15.25;41.24;101875.78;6032978;28;20034;-67
2023/05/17 13:18:54;;;;;;;3.47;1.05;;;;;;;15.82;40.14;101880.00;6035259;28;20466;-68
2023/05/17 13:21:49;;;;;;;9.82;1.15;;;;;;;15.28;39.78;101875.50;6036216;28;20433;-67
2023/05/17 13:24:46;;;;;;;4.65;1.10;;;;;;;15.53;40.98;101878.50;6032965;28;20052;-68
2023/05/17 13:27:45;;;;;;;6.10;1.38;;;;;;;15.35;40.34;101873.94;6026466;28;20038;-67
2023/05/17 13:30:44;;;;;;;5.95;1.67;;;;;;;15.69;40.27;101857.28;6022273;28;20042;-68
2023/05/17 13:33:40;;;;;;;5.13;1.40;;;;;;;15.11;41.61;101875.47;6031581;28;20038;-68
2023/05/17 13:36:35;;;;;;;7.77;1.23;;;;;;;15.21;41.74;101860.22;6022376;28;20076;-68
2023/05/17 13:39:30;;;;;;;8.23;1.40;;;;;;;15.13;39.67;101866.31;6022810;28;20270;-67